Time;durP1;ratioP1;P1;durP2;ratioP2;P2;SDS_P1;SDS_P2;PMS_P1;PMS_P2;Temp;Humidity;BMP_temperature;BMP_pressure;BME280_temperature;BME280_humidity;BME280_pressure;Samples;Min_cycle;Max_cycle;Signal;HPM_P1;HPM_P2
2022/06/01 00:02:18;;;;;;;12.70;7.18;;;18.30;99.90;;;;;;5033453;28;20395;-83
2022/06/01 00:04:44;;;;;;;9.07;6.90;;;18.20;99.90;;;;;;5020266;28;20091;-82
2022/06/01 00:07:13;;;;;;;13.77;7.22;;;18.20;99.90;;;;;;5035926;28;20117;-82
2022/06/01 00:09:39;;;;;;;12.25;7.57;;;18.20;99.90;;;;;;5040702;28;20036;-80
2022/06/01 00:12:05;;;;;;;12.20;7.15;;;18.10;99.90;;;;;;5045071;28;20037;-80
2022/06/01 00:14:33;;;;;;;13.82;7.43;;;18.10;99.90;;;;;;5020224;28;20018;-80
2022/06/01 00:16:58;;;;;;;12.70;7.50;;;18.00;99.90;;;;;;5031145;28;20175;-83
2022/06/01 00:19:24;;;;;;;11.35;7.80;;;18.00;99.90;;;;;;5041604;28;20101;-82
2022/06/01 00:24:37;;;;;;;10.18;7.10;;;18.10;99.90;;;;;;5037012;28;20101;-82
2022/06/01 00:27:03;;;;;;;10.55;7.50;;;18.20;99.90;;;;;;5036165;28;20032;-82
2022/06/01 00:29:29;;;;;;;8.88;7.15;;;18.30;99.90;;;;;;5042061;28;20645;-81
2022/06/01 00:31:54;;;;;;;12.90;7.68;;;18.40;99.90;;;;;;5017581;28;20029;-81
2022/06/01 00:34:20;;;;;;;12.20;7.90;;;18.50;99.90;;;;;;5041479;28;20025;-81
2022/06/01 00:36:46;;;;;;;10.35;7.28;;;18.60;99.90;;;;;;5039988;28;20049;-81
2022/06/01 00:39:12;;;;;;;14.75;7.25;;;18.60;99.90;;;;;;5018501;28;20018;-81
2022/06/01 00:41:37;;;;;;;12.93;7.60;;;18.60;99.90;;;;;;5039358;28;20032;-81
2022/06/01 00:44:04;;;;;;;15.50;7.78;;;18.60;99.90;;;;;;5041880;28;20029;-81
2022/06/01 00:46:30;;;;;;;13.18;7.22;;;18.60;99.90;;;;;;5020222;28;20116;-83
2022/06/01 00:49:02;;;;;;;12.73;8.23;;;18.60;99.90;;;;;;5025762;28;20029;-81
2022/06/01 00:51:28;;;;;;;;;;;18.60;99.90;;;;;;5043472;28;20049;-83
2022/06/01 00:53:56;;;;;;;16.20;7.88;;;18.60;99.90;;;;;;5042905;28;19911;-82
2022/06/01 00:56:37;;;;;;;28.13;7.93;;;18.70;99.90;;;;;;5047096;28;20511;-81
2022/06/01 00:59:06;;;;;;;17.35;8.13;;;18.60;99.90;;;;;;5043699;28;20022;-83
2022/06/01 01:01:32;;;;;;;14.23;7.60;;;18.60;99.90;;;;;;5012696;28;20037;-81
2022/06/01 01:04:00;;;;;;;15.00;7.95;;;18.60;99.90;;;;;;5041543;28;20075;-84
2022/06/01 01:06:39;;;;;;;21.95;8.27;;;18.60;99.90;;;;;;5040300;28;20503;-81
2022/06/01 01:09:07;;;;;;;17.35;8.48;;;18.60;99.90;;;;;;5039653;28;20033;-81
2022/06/01 01:11:53;;;;;;;18.23;8.48;;;18.60;99.90;;;;;;5028877;28;20033;-81
2022/06/01 01:14:26;;;;;;;15.52;8.63;;;18.50;99.90;;;;;;5041623;28;20029;-82
2022/06/01 01:16:54;;;;;;;14.52;8.32;;;18.50;99.90;;;;;;5035063;28;20025;-81
2022/06/01 01:19:32;;;;;;;18.08;9.00;;;18.40;99.90;;;;;;5042450;28;20480;-81
2022/06/01 01:22:13;;;;;;;17.75;8.60;;;18.40;99.90;;;;;;5044099;28;20023;-80
2022/06/01 01:25:00;;;;;;;18.35;8.52;;;18.30;99.90;;;;;;5040433;28;20409;-80
2022/06/01 01:27:26;;;;;;;19.13;9.15;;;18.20;99.90;;;;;;5039196;28;20035;-81
2022/06/01 01:29:54;;;;;;;18.08;9.27;;;18.10;99.90;;;;;;5042818;28;20451;-81
2022/06/01 01:32:20;;;;;;;14.20;7.95;;;18.10;99.90;;;;;;5039661;28;20069;-80
2022/06/01 01:34:45;;;;;;;14.40;9.00;;;18.10;99.90;;;;;;5042283;28;20110;-80
2022/06/01 01:37:22;;;;;;;14.20;9.10;;;18.00;99.90;;;;;;5042783;28;20025;-81
2022/06/01 01:39:51;;;;;;;15.35;9.10;;;18.00;99.90;;;;;;5042958;28;20391;-81
2022/06/01 01:42:17;;;;;;;18.50;8.85;;;18.10;99.90;;;;;;5039078;28;20506;-81
2022/06/01 01:44:45;;;;;;;18.35;9.82;;;18.10;99.90;;;;;;5045052;28;20025;-81
2022/06/01 01:47:12;;;;;;;17.63;9.15;;;18.20;99.90;;;;;;5040579;28;20159;-81
2022/06/01 01:49:39;;;;;;;14.77;8.60;;;18.20;99.90;;;;;;5045228;28;20388;-81
2022/06/01 01:52:12;;;;;;;26.85;10.07;;;18.10;99.90;;;;;;5047709;28;20064;-81
2022/06/01 01:55:01;;;;;;;20.95;9.63;;;18.20;99.90;;;;;;5038497;28;20035;-82
2022/06/01 01:57:48;;;;;;;17.58;8.55;;;18.20;99.90;;;;;;5045316;28;20112;-82
2022/06/01 02:00:49;;;;;;;15.35;8.20;;;18.30;99.90;;;;;;5037414;28;20108;-81
2022/06/01 02:03:33;;;;;;;13.60;8.00;;;18.30;99.90;;;;;;4996270;28;20137;-81
2022/06/01 02:06:16;;;;;;;11.98;7.95;;;18.40;99.90;;;;;;5042967;28;20514;-81
2022/06/01 02:08:53;;;;;;;14.52;8.65;;;18.40;99.90;;;;;;5033997;28;20603;-80
2022/06/01 02:14:40;;;;;;;13.90;8.20;;;18.40;99.90;;;;;;5044637;28;20039;-82
2022/06/01 02:17:09;;;;;;;16.65;8.55;;;18.30;99.90;;;;;;5045296;28;20119;-81
2022/06/01 02:19:41;;;;;;;14.35;8.88;;;18.20;99.90;;;;;;5044902;28;20071;-80
2022/06/01 02:22:08;;;;;;;15.82;8.45;;;18.20;99.90;;;;;;5049337;28;20017;-80
2022/06/01 02:24:34;;;;;;;15.93;8.38;;;18.10;99.90;;;;;;5029916;28;20427;-80
2022/06/01 02:27:00;;;;;;;17.85;9.02;;;18.10;99.90;;;;;;5043951;28;20431;-80
2022/06/01 02:29:32;;;;;;;14.77;8.77;;;18.00;99.90;;;;;;5040160;28;20025;-80
2022/06/01 02:31:59;;;;;;;15.70;8.90;;;17.90;99.90;;;;;;5036454;28;20048;-81
2022/06/01 02:34:25;;;;;;;28.60;9.50;;;17.90;99.90;;;;;;5044349;28;20029;-80
2022/06/01 02:36:51;;;;;;;14.77;8.45;;;17.90;99.90;;;;;;5036956;28;20035;-80
2022/06/01 02:39:17;;;;;;;13.73;8.18;;;17.80;99.90;;;;;;5043295;28;20104;-80
2022/06/01 02:44:27;;;;;;;14.38;8.07;;;17.70;99.90;;;;;;5039495;28;20457;-80
2022/06/01 02:46:53;;;;;;;16.92;8.45;;;17.60;99.90;;;;;;5046068;28;20100;-81
2022/06/01 02:49:19;;;;;;;14.70;8.65;;;17.50;99.90;;;;;;5040088;28;20028;-81
2022/06/01 02:51:46;;;;;;;14.20;8.43;;;17.40;99.90;;;;;;5045925;28;20053;-80
2022/06/01 02:54:13;;;;;;;16.98;9.18;;;17.40;99.90;;;;;;5040616;28;20476;-80
2022/06/01 02:56:38;;;;;;;15.85;8.55;;;17.30;99.90;;;;;;5037741;28;20026;-81
2022/06/01 02:59:05;;;;;;;15.20;8.57;;;17.30;99.90;;;;;;5041693;28;20025;-81
2022/06/01 03:01:32;;;;;;;18.10;9.10;;;17.20;99.90;;;;;;5040803;28;20025;-80
2022/06/01 03:03:58;;;;;;;16.20;8.30;;;17.30;99.90;;;;;;5044991;28;20028;-80
2022/06/01 03:06:24;;;;;;;17.23;8.98;;;17.20;99.90;;;;;;5044644;28;20879;-81
2022/06/01 03:08:51;;;;;;;33.38;9.18;;;17.20;99.90;;;;;;5024917;28;20111;-81
2022/06/01 03:11:17;;;;;;;15.05;8.65;;;17.20;99.90;;;;;;5037703;28;20037;-80
2022/06/01 03:13:43;;;;;;;10.95;7.80;;;17.20;99.90;;;;;;5035993;28;20029;-80
2022/06/01 03:16:09;;;;;;;12.90;7.88;;;17.20;99.90;;;;;;5025614;28;20051;-81
2022/06/01 03:18:38;;;;;;;12.10;8.15;;;17.20;99.90;;;;;;5038294;28;20499;-80
2022/06/01 03:21:06;;;;;;;16.73;8.43;;;17.20;99.90;;;;;;5033985;28;20017;-80
2022/06/01 03:23:32;;;;;;;9.35;7.63;;;17.30;99.90;;;;;;5043214;28;20033;-80
2022/06/01 03:25:58;;;;;;;14.65;8.00;;;17.30;99.90;;;;;;5043334;28;20397;-83
2022/06/01 03:28:23;;;;;;;16.75;8.60;;;17.30;99.90;;;;;;5040346;28;20391;-83
2022/06/01 03:30:50;;;;;;;14.77;8.13;;;17.20;99.90;;;;;;5037322;28;20036;-82
2022/06/01 03:33:17;;;;;;;17.08;8.48;;;17.20;99.90;;;;;;5045419;28;20472;-83
2022/06/01 03:35:43;;;;;;;20.75;8.40;;;17.30;99.90;;;;;;5042482;28;20108;-80
2022/06/01 03:38:08;;;;;;;11.57;7.47;;;17.30;99.90;;;;;;5043968;28;20045;-83
2022/06/01 03:40:37;;;;;;;14.63;7.90;;;17.30;99.90;;;;;;5038454;28;20115;-80
2022/06/01 03:43:04;;;;;;;15.52;7.45;;;17.40;99.90;;;;;;5042975;28;20009;-80
2022/06/01 03:48:17;;;;;;;14.98;7.28;;;17.40;99.90;;;;;;5038567;28;20150;-80
2022/06/01 03:50:44;;;;;;;17.52;7.20;;;17.40;99.90;;;;;;5040188;28;20033;-80
2022/06/01 03:53:10;;;;;;;14.98;7.38;;;17.40;99.90;;;;;;5042973;28;20061;-80
2022/06/01 03:55:36;;;;;;;16.65;8.25;;;17.40;99.90;;;;;;5040981;28;20091;-82
2022/06/01 03:58:02;;;;;;;17.92;7.60;;;17.40;99.90;;;;;;5025003;28;20027;-82
2022/06/01 04:00:28;;;;;;;15.25;7.35;;;17.40;99.90;;;;;;5035316;28;20106;-83
2022/06/01 04:02:54;;;;;;;10.35;6.53;;;17.40;99.90;;;;;;5037347;28;20022;-82
2022/06/01 04:05:22;;;;;;;15.73;7.00;;;17.40;99.90;;;;;;5041789;28;20019;-82
2022/06/01 04:07:47;;;;;;;12.18;6.93;;;17.50;99.90;;;;;;5043666;28;20021;-82
2022/06/01 04:10:13;;;;;;;18.15;7.38;;;17.50;99.90;;;;;;5037236;28;20034;-82
2022/06/01 04:12:39;;;;;;;14.10;6.97;;;17.60;99.90;;;;;;5044685;28;20030;-80
2022/06/01 04:15:08;;;;;;;14.35;6.95;;;17.60;99.90;;;;;;5041088;28;20064;-82
2022/06/01 04:17:34;;;;;;;20.73;7.10;;;17.70;99.90;;;;;;5034516;28;20025;-82
2022/06/01 04:19:59;;;;;;;16.48;6.65;;;17.80;99.90;;;;;;5038591;28;20541;-83
2022/06/01 04:22:25;;;;;;;14.40;7.40;;;17.90;99.90;;;;;;5048520;28;20468;-81
2022/06/01 04:24:51;;;;;;;13.77;7.10;;;17.90;99.90;;;;;;5046430;28;20513;-80
2022/06/01 04:27:17;;;;;;;13.95;6.35;;;17.90;99.90;;;;;;5041601;28;20672;-80
2022/06/01 04:29:43;;;;;;;16.88;6.85;;;18.00;99.90;;;;;;5045147;28;20388;-80
2022/06/01 04:32:15;;;;;;;17.25;7.05;;;18.00;99.90;;;;;;5048458;28;20033;-80
2022/06/01 04:34:41;;;;;;;17.35;6.65;;;18.10;99.90;;;;;;5045447;28;20372;-82
2022/06/01 04:37:07;;;;;;;14.40;6.57;;;18.10;99.90;;;;;;5049492;28;20021;-81
2022/06/01 04:39:33;;;;;;;11.07;6.32;;;18.20;99.90;;;;;;5038893;28;20021;-81
2022/06/01 04:41:59;;;;;;;15.52;6.00;;;18.20;99.90;;;;;;5049183;28;20078;-81
2022/06/01 04:44:25;;;;;;;9.95;5.80;;;18.20;99.90;;;;;;5041909;28;20048;-81
2022/06/01 04:46:51;;;;;;;13.23;5.88;;;18.30;99.90;;;;;;5041587;28;20503;-81
2022/06/01 04:49:17;;;;;;;13.07;6.03;;;18.40;99.90;;;;;;5045139;28;20009;-81
2022/06/01 04:51:42;;;;;;;17.58;6.45;;;18.40;99.90;;;;;;5045467;28;20053;-81
2022/06/01 04:54:08;;;;;;;14.45;5.90;;;18.40;99.90;;;;;;5041104;28;20060;-81
2022/06/01 04:56:35;;;;;;;14.68;6.50;;;18.50;99.90;;;;;;5043720;28;20025;-81
2022/06/01 04:59:01;;;;;;;14.68;6.22;;;18.50;99.90;;;;;;5044171;28;20018;-82
2022/06/01 05:01:27;;;;;;;9.88;6.22;;;18.60;99.90;;;;;;5042340;28;20091;-81
2022/06/01 05:03:52;;;;;;;14.60;6.10;;;18.60;99.90;;;;;;5045516;28;20021;-81
2022/06/01 05:06:18;;;;;;;11.90;6.18;;;18.70;99.90;;;;;;5026467;28;20025;-81
2022/06/01 05:08:43;;;;;;;10.95;6.00;;;18.70;99.90;;;;;;5041408;28;20025;-81
2022/06/01 05:11:09;;;;;;;15.27;5.72;;;18.80;99.90;;;;;;5046067;28;20029;-81
2022/06/01 05:13:35;;;;;;;11.85;5.35;;;19.00;99.90;;;;;;5040619;28;20112;-82
2022/06/01 05:16:02;;;;;;;13.77;5.72;;;19.10;99.90;;;;;;5046527;28;20479;-81
2022/06/01 05:18:28;;;;;;;14.05;5.97;;;19.10;99.90;;;;;;5043871;28;20064;-81
2022/06/01 05:20:54;;;;;;;10.90;5.75;;;19.30;99.90;;;;;;5041630;28;20025;-81
2022/06/01 05:23:21;;;;;;;10.85;5.50;;;19.40;99.90;;;;;;5041994;28;20117;-82
2022/06/01 05:25:49;;;;;;;12.90;5.60;;;19.50;99.90;;;;;;5041688;28;20488;-82
2022/06/01 05:28:24;;;;;;;11.93;5.30;;;19.60;99.90;;;;;;5045372;28;20017;-82
2022/06/01 05:30:50;;;;;;;11.50;5.00;;;19.70;99.90;;;;;;5039478;28;20430;-81
2022/06/01 05:33:16;;;;;;;13.32;5.88;;;19.70;99.90;;;;;;5043470;28;20025;-82
2022/06/01 05:35:41;;;;;;;13.23;5.70;;;19.70;99.90;;;;;;5045602;28;20384;-81
2022/06/01 05:38:07;;;;;;;10.75;4.85;;;19.80;99.90;;;;;;5045443;28;20028;-82
2022/06/01 05:40:33;;;;;;;12.65;5.45;;;19.80;99.90;;;;;;5043583;28;20389;-82
2022/06/01 05:43:00;;;;;;;12.05;5.55;;;19.80;99.90;;;;;;5046825;28;20029;-81
2022/06/01 05:45:26;;;;;;;11.63;4.80;;;19.90;99.90;;;;;;5037113;28;20021;-82
2022/06/01 05:47:51;;;;;;;11.07;5.20;;;20.00;99.90;;;;;;5040060;28;20068;-82
2022/06/01 05:50:18;;;;;;;22.63;6.05;;;20.10;99.90;;;;;;5045335;28;20045;-82
2022/06/01 05:52:44;;;;;;;16.17;5.15;;;20.20;99.90;;;;;;5045317;28;20504;-82
2022/06/01 05:55:13;;;;;;;18.10;4.75;;;20.30;99.90;;;;;;5041821;28;20021;-82
2022/06/01 05:57:39;;;;;;;11.48;5.60;;;20.50;99.90;;;;;;5039142;28;20029;-82
2022/06/01 06:00:10;;;;;;;11.88;5.20;;;20.50;99.90;;;;;;5041356;28;20022;-82
2022/06/01 06:02:36;;;;;;;9.10;4.63;;;20.60;99.90;;;;;;5046625;28;20024;-81
2022/06/01 06:05:02;;;;;;;13.43;5.13;;;20.60;99.90;;;;;;5041339;28;20073;-83
2022/06/01 06:07:28;;;;;;;13.02;4.43;;;20.70;99.90;;;;;;5047800;28;20055;-82
2022/06/01 06:09:53;;;;;;;12.40;5.30;;;20.90;99.90;;;;;;5041769;28;20473;-82
2022/06/01 06:12:19;;;;;;;10.30;4.45;;;20.90;99.90;;;;;;5043619;28;20036;-82
2022/06/01 06:14:45;;;;;;;22.73;5.82;;;21.00;99.90;;;;;;5041375;28;20036;-82
2022/06/01 06:17:11;;;;;;;19.90;5.65;;;21.10;99.90;;;;;;5017699;28;20021;-82
2022/06/01 06:19:38;;;;;;;13.93;5.47;;;21.20;99.90;;;;;;5038824;28;20032;-81
2022/06/01 06:22:06;;;;;;;13.82;5.20;;;21.30;99.90;;;;;;5046265;28;20017;-82
2022/06/01 06:24:32;;;;;;;14.50;5.72;;;21.50;99.90;;;;;;5027413;28;20013;-83
2022/06/01 06:26:58;;;;;;;19.02;4.97;;;21.60;99.90;;;;;;5035042;28;20061;-83
2022/06/01 06:29:24;;;;;;;13.32;5.20;;;21.60;99.90;;;;;;5042286;28;20021;-81
2022/06/01 06:31:50;;;;;;;19.25;5.38;;;21.80;99.90;;;;;;5040388;28;20033;-82
2022/06/01 06:34:17;;;;;;;19.00;5.32;;;21.80;99.90;;;;;;5038129;28;20033;-83
2022/06/01 06:36:44;;;;;;;16.55;6.60;;;21.90;99.90;;;;;;5041350;28;20031;-84
2022/06/01 06:39:10;;;;;;;12.88;5.25;;;22.00;99.90;;;;;;5041527;28;20025;-81
2022/06/01 06:41:36;;;;;;;19.00;6.38;;;22.10;99.90;;;;;;5038725;28;20026;-82
2022/06/01 06:44:02;;;;;;;22.77;5.25;;;22.10;99.90;;;;;;5041403;28;20389;-82
2022/06/01 06:46:29;;;;;;;10.23;5.63;;;22.10;99.90;;;;;;5037861;28;20506;-82
2022/06/01 06:48:54;;;;;;;12.55;5.47;;;22.10;99.90;;;;;;5040668;28;20032;-81
2022/06/01 06:51:21;;;;;;;23.50;6.10;;;22.20;99.90;;;;;;5045997;28;20033;-82
2022/06/01 06:53:48;;;;;;;17.80;5.78;;;22.20;99.90;;;;;;5043821;28;20025;-81
2022/06/01 06:56:16;;;;;;;14.23;5.80;;;22.40;99.90;;;;;;5022126;28;20471;-82
2022/06/01 06:58:43;;;;;;;22.77;6.80;;;22.40;99.90;;;;;;5030401;28;20026;-81
2022/06/01 07:01:09;;;;;;;16.85;5.20;;;22.50;99.90;;;;;;5040126;28;20526;-82
2022/06/01 07:03:35;;;;;;;17.95;6.30;;;22.50;99.90;;;;;;5038395;28;20033;-83
2022/06/01 07:06:11;;;;;;;16.23;5.70;;;22.60;99.90;;;;;;5037165;28;20056;-84
2022/06/01 07:08:43;;;;;;;21.52;6.60;;;22.50;99.90;;;;;;5026335;28;20025;-84
2022/06/01 07:11:10;;;;;;;16.23;5.72;;;22.60;99.90;;;;;;5040697;28;20037;-82
2022/06/01 07:13:36;;;;;;;14.43;5.60;;;22.70;99.90;;;;;;5037994;28;20026;-81
2022/06/01 07:16:07;;;;;;;16.73;5.63;;;22.80;99.90;;;;;;5044012;28;20036;-83
2022/06/01 07:18:35;;;;;;;19.02;6.60;;;22.80;99.90;;;;;;5040415;28;20013;-81
2022/06/01 07:21:01;;;;;;;21.75;6.15;;;22.90;99.90;;;;;;5034053;28;20509;-81
2022/06/01 07:23:26;;;;;;;16.83;5.93;;;23.10;99.90;;;;;;5026945;28;20033;-81
2022/06/01 07:25:53;;;;;;;23.35;6.10;;;23.10;99.90;;;;;;5037308;28;20568;-81
2022/06/01 07:28:22;;;;;;;15.65;5.80;;;23.10;99.90;;;;;;5017711;28;20735;-81
2022/06/01 07:30:56;;;;;;;17.15;5.93;;;23.10;99.90;;;;;;5037902;28;20028;-81
2022/06/01 07:33:24;;;;;;;25.55;6.75;;;23.10;99.90;;;;;;5028850;28;20116;-81
2022/06/01 07:35:50;;;;;;;25.88;6.57;;;23.20;99.90;;;;;;5035287;28;20032;-81
2022/06/01 07:43:44;;;;;;;17.65;6.68;;;23.20;99.90;;;;;;5036795;28;20085;-81
2022/06/01 07:46:09;;;;;;;21.35;6.88;;;23.20;99.90;;;;;;5043052;28;20536;-81
2022/06/01 07:48:35;;;;;;;23.73;6.97;;;23.20;99.90;;;;;;5037601;28;20034;-81
2022/06/01 07:51:01;;;;;;;18.33;6.60;;;23.20;99.90;;;;;;5045421;28;20104;-81
2022/06/01 07:53:27;;;;;;;16.90;6.28;;;23.20;99.90;;;;;;5024968;28;20136;-81
2022/06/01 07:55:53;;;;;;;18.10;6.88;;;23.00;99.90;;;;;;5040706;28;20024;-80
2022/06/01 07:58:19;;;;;;;20.67;6.78;;;22.80;99.90;;;;;;5024776;28;20021;-79
2022/06/01 08:00:44;;;;;;;18.13;7.95;;;22.80;99.90;;;;;;5031549;28;20036;-80
2022/06/01 08:03:13;;;;;;;17.75;7.07;;;22.80;99.90;;;;;;5039570;28;20101;-80
2022/06/01 08:05:39;;;;;;;21.70;6.85;;;22.60;99.90;;;;;;5040707;28;20033;-81
2022/06/01 08:08:05;;;;;;;14.88;7.25;;;22.70;99.90;;;;;;5044181;28;20018;-81
2022/06/01 08:10:30;;;;;;;21.23;7.05;;;22.70;99.90;;;;;;5040422;28;20029;-81
2022/06/01 08:13:08;;;;;;;15.43;6.55;;;22.90;99.90;;;;;;5019523;28;20033;-80
2022/06/01 08:15:55;;;;;;;19.60;6.70;;;22.90;99.90;;;;;;5037642;28;20021;-80
2022/06/01 08:18:22;;;;;;;23.65;7.25;;;23.10;99.90;;;;;;5033008;28;20455;-80
2022/06/01 08:20:49;;;;;;;21.10;7.10;;;23.10;99.90;;;;;;5031569;28;20927;-81
2022/06/01 08:23:15;;;;;;;21.42;7.03;;;23.20;99.90;;;;;;5022511;28;20029;-81
2022/06/01 08:25:42;;;;;;;17.35;6.68;;;23.30;99.90;;;;;;5041725;28;20477;-80
2022/06/01 08:28:09;;;;;;;27.13;7.65;;;23.10;99.90;;;;;;5041189;28;20022;-81
2022/06/01 08:30:36;;;;;;;16.10;6.25;;;23.20;99.90;;;;;;5042535;28;20380;-80
2022/06/01 08:33:02;;;;;;;20.85;7.05;;;23.20;99.90;;;;;;5042607;28;20032;-81
2022/06/01 08:35:34;;;;;;;16.02;6.65;;;23.10;99.90;;;;;;5019029;28;20026;-80
2022/06/01 08:38:01;;;;;;;17.50;7.30;;;23.10;99.90;;;;;;5033791;28;20021;-80
2022/06/01 08:40:33;;;;;;;13.65;6.45;;;23.30;99.90;;;;;;5043001;28;20092;-81
2022/06/01 08:43:11;;;;;;;17.05;6.68;;;23.20;99.90;;;;;;5033020;28;20076;-80
2022/06/01 08:45:39;;;;;;;20.20;7.25;;;23.20;99.90;;;;;;5036125;28;20021;-80
2022/06/01 08:48:06;;;;;;;25.95;7.05;;;23.00;99.90;;;;;;5019276;28;20017;-80
2022/06/01 08:50:36;;;;;;;22.35;7.00;;;23.00;99.90;;;;;;5037654;28;20147;-80
2022/06/01 08:53:05;;;;;;;20.55;7.30;;;23.00;99.90;;;;;;5037823;28;20408;-80
2022/06/01 08:55:55;;;;;;;28.60;7.45;;;23.00;99.90;;;;;;5037225;28;20357;-80
2022/06/01 08:58:41;;;;;;;22.80;8.00;;;23.10;99.90;;;;;;5036449;28;20017;-81
2022/06/01 09:01:28;;;;;;;22.67;7.75;;;23.10;99.90;;;;;;5030951;28;20485;-81
2022/06/01 09:04:28;;;;;;;16.80;7.72;;;23.10;99.90;;;;;;5035094;28;20515;-80
2022/06/01 09:07:46;;;;;;;20.55;7.72;;;23.20;99.90;;;;;;5040803;28;20043;-80
2022/06/01 09:10:32;;;;;;;20.70;8.23;;;23.30;99.90;;;;;;5043010;28;20518;-80
2022/06/01 09:13:07;;;;;;;19.90;8.10;;;23.20;99.90;;;;;;5036385;28;20033;-80
2022/06/01 09:15:47;;;;;;;19.33;7.38;;;23.20;99.90;;;;;;5040633;28;20025;-81
2022/06/01 09:18:14;;;;;;;18.02;7.70;;;23.10;99.90;;;;;;5039569;28;20025;-80
2022/06/01 09:23:24;;;;;;;18.35;7.95;;;23.30;99.90;;;;;;5045833;28;20118;-81
2022/06/01 09:25:56;;;;;;;20.27;7.88;;;23.00;99.90;;;;;;5025624;28;20025;-81
2022/06/01 09:28:25;;;;;;;25.10;8.60;;;23.10;99.90;;;;;;5045286;28;20435;-81
2022/06/01 09:31:01;;;;;;;16.10;7.00;;;23.00;99.90;;;;;;5039151;28;20036;-81
2022/06/01 09:33:32;;;;;;;23.42;7.43;;;23.00;99.90;;;;;;5041103;28;20021;-81
2022/06/01 09:36:07;;;;;;;20.03;7.30;;;23.00;99.90;;;;;;5029921;28;20032;-80
2022/06/01 09:38:47;;;;;;;14.93;6.95;;;23.20;99.90;;;;;;5044535;28;20020;-81
2022/06/01 09:41:36;;;;;;;19.65;7.13;;;23.10;99.90;;;;;;5040959;28;20653;-80
2022/06/01 09:44:32;;;;;;;27.42;8.10;;;23.10;99.90;;;;;;5038324;28;20029;-80
2022/06/01 09:47:00;;;;;;;16.83;7.43;;;23.10;99.90;;;;;;5027342;28;20037;-81
2022/06/01 09:49:31;;;;;;;15.43;6.85;;;23.20;99.90;;;;;;5040567;28;20036;-80
2022/06/01 09:51:57;;;;;;;16.40;7.25;;;23.30;99.90;;;;;;5047648;28;20056;-81
2022/06/01 09:54:28;;;;;;;22.55;7.07;;;23.30;99.90;;;;;;5040564;28;20022;-80
2022/06/01 09:56:55;;;;;;;20.17;7.07;;;23.40;99.90;;;;;;5036340;28;20036;-80
2022/06/01 10:08:30;;;;;;;18.42;6.07;;;23.30;99.90;;;;;;5037754;28;20031;-80
2022/06/01 10:11:19;;;;;;;13.48;5.90;;;23.20;99.90;;;;;;5044620;28;20129;-80
2022/06/01 10:13:52;;;;;;;11.60;5.40;;;23.00;99.90;;;;;;5033022;28;20038;-80
2022/06/01 10:16:39;;;;;;;18.38;5.63;;;23.00;99.90;;;;;;5045059;28;20376;-80
2022/06/01 10:19:11;;;;;;;20.92;5.95;;;23.00;99.90;;;;;;5041496;28;20029;-80
2022/06/01 10:21:50;;;;;;;13.57;5.68;;;23.10;99.90;;;;;;5044748;28;20026;-80
2022/06/01 10:24:23;;;;;;;16.25;6.40;;;23.30;99.90;;;;;;5043197;28;20055;-82
2022/06/01 10:26:55;;;;;;;11.93;5.63;;;23.40;99.90;;;;;;5042181;28;20550;-81
2022/06/01 10:29:43;;;;;;;12.90;6.07;;;23.30;99.90;;;;;;5043261;28;20056;-82
2022/06/01 10:32:37;;;;;;;16.20;6.07;;;23.30;99.90;;;;;;5034498;28;20036;-83
2022/06/01 10:35:37;;;;;;;17.48;5.97;;;23.20;99.90;;;;;;5036447;28;20041;-83
2022/06/01 10:38:26;;;;;;;15.00;5.50;;;23.00;99.90;;;;;;4998201;28;20371;-83
2022/06/01 10:41:04;;;;;;;16.50;5.55;;;23.10;99.90;;;;;;5045591;28;20025;-84
2022/06/01 10:43:54;;;;;;;13.65;5.57;;;23.10;99.90;;;;;;5039318;28;20416;-83
2022/06/01 10:46:34;;;;;;;16.27;5.97;;;23.10;99.90;;;;;;5040046;28;20111;-84
2022/06/01 10:49:26;;;;;;;14.68;5.38;;;23.20;99.90;;;;;;5041381;28;20492;-82
2022/06/01 10:52:10;;;;;;;15.23;5.28;;;23.20;99.90;;;;;;5038348;28;20049;-84
2022/06/01 10:55:20;;;;;;;15.90;6.20;;;23.40;99.90;;;;;;5037338;28;20086;-83
2022/06/01 10:57:48;;;;;;;20.40;6.85;;;23.40;99.90;;;;;;5010321;28;20048;-88
2022/06/01 11:00:22;;;;;;;23.67;6.50;;;23.30;99.90;;;;;;5032416;28;20014;-85
2022/06/01 11:03:29;;;;;;;21.90;7.57;;;23.40;99.90;;;;;;5041500;28;20060;-82
2022/06/01 11:06:34;;;;;;;18.52;7.20;;;23.30;99.90;;;;;;5001755;28;20037;-82
2022/06/01 11:09:15;;;;;;;22.83;7.30;;;23.40;99.90;;;;;;5018492;28;20037;-83
2022/06/01 11:11:57;;;;;;;19.70;6.88;;;23.30;99.90;;;;;;5016182;28;20037;-84
2022/06/01 11:14:32;;;;;;;23.35;7.15;;;23.40;99.90;;;;;;5020867;28;20032;-86
2022/06/01 11:17:01;;;;;;;18.73;7.03;;;23.30;99.90;;;;;;5015504;28;20057;-88
2022/06/01 11:20:00;;;;;;;15.80;6.47;;;23.30;99.90;;;;;;5040028;28;20025;-86
2022/06/01 11:22:54;;;;;;;18.08;7.28;;;23.50;99.90;;;;;;5024182;28;20047;-84
2022/06/01 11:25:43;;;;;;;16.88;6.70;;;23.50;99.90;;;;;;5037517;28;20071;-85
2022/06/01 11:28:28;;;;;;;23.83;7.13;;;23.40;99.90;;;;;;5032755;28;20391;-86
2022/06/01 11:31:21;;;;;;;18.40;6.75;;;23.40;99.90;;;;;;5036385;28;20368;-88
2022/06/01 11:34:12;;;;;;;20.73;6.85;;;23.40;99.90;;;;;;5014128;28;20037;-84
2022/06/01 11:36:41;;;;;;;16.30;7.40;;;23.60;99.90;;;;;;5032816;28;20373;-85
2022/06/01 11:39:29;;;;;;;20.92;6.97;;;23.80;99.90;;;;;;5038691;28;20021;-85
2022/06/01 11:42:00;;;;;;;34.85;7.50;;;23.70;99.90;;;;;;5008870;28;20048;-86
2022/06/01 11:44:36;;;;;;;16.50;6.40;;;23.80;99.90;;;;;;5019019;28;20044;-84
2022/06/01 11:47:08;;;;;;;18.25;6.68;;;23.80;99.90;;;;;;5035882;28;20040;-87
2022/06/01 11:50:00;;;;;;;17.92;6.50;;;23.70;99.90;;;;;;5031890;28;20021;-84
2022/06/01 11:52:44;;;;;;;22.70;6.32;;;23.60;99.90;;;;;;5041660;28;20040;-84
2022/06/01 11:55:45;;;;;;;22.70;6.85;;;23.70;99.90;;;;;;5038857;28;20025;-85
2022/06/01 11:58:21;;;;;;;19.95;6.80;;;23.70;99.90;;;;;;4961824;28;20041;-84
2022/06/01 12:00:51;;;;;;;20.65;5.88;;;24.80;99.90;;;;;;5038347;28;20387;-85
2022/06/01 12:03:20;;;;;;;18.55;5.75;;;27.70;99.90;;;;;;5039600;28;20480;-84
2022/06/01 12:06:05;;;;;;;15.43;5.53;;;29.50;99.90;;;;;;5037270;28;20370;-84
2022/06/01 12:08:41;;;;;;;16.10;5.18;;;30.70;99.90;;;;;;4964146;28;20120;-85
2022/06/01 12:11:13;;;;;;;20.75;5.43;;;31.50;99.90;;;;;;5031376;28;20041;-85
2022/06/01 12:13:42;;;;;;;;;;;31.70;99.90;;;;;;5034384;28;20117;-84
2022/06/01 12:16:19;;;;;;;15.02;5.28;;;31.30;99.90;;;;;;5035399;28;19909;-84
2022/06/01 12:19:31;;;;;;;17.13;5.30;;;31.80;99.90;;;;;;5040138;28;20036;-84
2022/06/01 12:28:30;;;;;;;20.65;5.95;;;31.70;99.90;;;;;;5034512;28;20072;-84
2022/06/01 12:30:23;;;;;;;13.48;4.70;;;32.60;99.90;;;;;;5035165;28;20036;-86
2022/06/01 12:33:00;;;;;;;13.88;4.80;;;32.20;99.90;;;;;;5034350;28;20120;-86
2022/06/01 12:35:45;;;;;;;16.77;5.05;;;32.00;99.90;;;;;;5023429;28;20064;-82
2022/06/01 12:38:23;;;;;;;14.98;5.55;;;32.60;99.90;;;;;;5032927;28;20105;-83
2022/06/01 12:41:03;;;;;;;19.15;5.25;;;32.70;99.90;;;;;;5028342;28;20025;-85
2022/06/01 12:43:29;;;;;;;13.40;4.82;;;32.90;99.90;;;;;;5040946;28;20028;-84
2022/06/01 12:45:55;;;;;;;16.58;5.60;;;33.20;99.90;;;;;;5022276;28;20697;-85
2022/06/01 12:48:23;;;;;;;14.63;5.07;;;33.80;99.90;;;;;;5039707;28;20023;-85
2022/06/01 12:50:57;;;;;;;18.23;5.00;;;34.40;99.90;;;;;;5040563;28;20373;-84
2022/06/01 12:53:40;;;;;;;16.05;5.05;;;34.30;99.90;;;;;;5042484;28;20053;-85
2022/06/01 12:56:21;;;;;;;13.27;4.93;;;35.40;99.90;;;;;;5037448;28;20014;-85
2022/06/01 12:58:50;;;;;;;16.88;4.55;;;35.20;99.90;;;;;;5031778;28;20286;-86
2022/06/01 13:01:18;;;;;;;12.77;4.72;;;35.00;99.90;;;;;;5039270;28;20484;-86
2022/06/01 13:03:50;;;;;;;16.73;5.22;;;34.90;99.90;;;;;;5034953;28;20083;-85
2022/06/01 13:06:21;;;;;;;15.38;4.88;;;34.60;99.90;;;;;;5046992;28;20033;-83
2022/06/01 13:08:57;;;;;;;12.00;4.63;;;34.20;99.90;;;;;;5017448;28;20079;-84
2022/06/01 13:11:26;;;;;;;14.10;4.40;;;33.70;99.90;;;;;;5046696;28;20124;-85
2022/06/01 13:13:52;;;;;;;18.63;4.50;;;34.10;99.90;;;;;;5045077;28;20023;-85
2022/06/01 13:16:21;;;;;;;13.48;5.03;;;34.10;99.90;;;;;;5043580;28;20155;-85
2022/06/01 13:18:48;;;;;;;16.33;5.43;;;34.30;99.90;;;;;;5023745;28;20409;-85
2022/06/01 13:21:21;;;;;;;16.17;5.43;;;34.40;99.90;;;;;;5043781;28;20499;-85
2022/06/01 13:23:59;;;;;;;15.23;4.60;;;33.80;99.90;;;;;;5035907;28;20075;-86
2022/06/01 13:26:36;;;;;;;19.00;5.43;;;34.50;99.90;;;;;;5027274;28;20034;-85
2022/06/01 13:29:18;;;;;;;18.80;7.45;;;34.10;99.90;;;;;;5043312;28;20134;-84
2022/06/01 13:31:46;;;;;;;;;;;34.10;99.90;;;;;;5039188;28;20064;-85
2022/06/01 13:34:38;;;;;;;16.20;4.88;;;33.50;99.90;;;;;;5044054;28;19905;-84
2022/06/01 13:37:16;;;;;;;14.57;4.95;;;33.50;99.90;;;;;;5030136;28;20120;-86